sensor_id;sensor_type;location;lat;lon;timestamp;P1;durP1;ratioP1;P2;durP2;ratioP2
75429;SDS011;64127;51.488;5.462;2023-08-12T00:02:38;11.50;;;7.83;;
75429;SDS011;64127;51.488;5.462;2023-08-12T00:05:12;9.47;;;8.13;;
75429;SDS011;64127;51.488;5.462;2023-08-12T00:07:44;9.63;;;7.77;;
75429;SDS011;64127;51.488;5.462;2023-08-12T00:10:19;10.20;;;7.80;;
75429;SDS011;64127;51.488;5.462;2023-08-12T00:12:52;10.50;;;8.33;;
75429;SDS011;64127;51.488;5.462;2023-08-12T00:15:24;10.43;;;8.30;;
75429;SDS011;64127;51.488;5.462;2023-08-12T00:17:57;11.53;;;7.93;;
75429;SDS011;64127;51.488;5.462;2023-08-12T00:20:29;8.80;;;7.80;;
75429;SDS011;64127;51.488;5.462;2023-08-12T00:23:02;11.17;;;8.67;;
75429;SDS011;64127;51.488;5.462;2023-08-12T00:25:34;11.23;;;8.33;;
75429;SDS011;64127;51.488;5.462;2023-08-12T00:28:06;9.47;;;8.17;;
75429;SDS011;64127;51.488;5.462;2023-08-12T00:30:38;13.23;;;8.53;;
75429;SDS011;64127;51.488;5.462;2023-08-12T00:33:10;11.07;;;8.60;;
75429;SDS011;64127;51.488;5.462;2023-08-12T00:35:43;14.07;;;9.43;;
75429;SDS011;64127;51.488;5.462;2023-08-12T00:38:15;12.00;;;8.60;;
75429;SDS011;64127;51.488;5.462;2023-08-12T00:40:47;10.77;;;8.77;;
75429;SDS011;64127;51.488;5.462;2023-08-12T00:43:19;12.97;;;8.80;;
75429;SDS011;64127;51.488;5.462;2023-08-12T00:45:51;10.60;;;8.37;;
75429;SDS011;64127;51.488;5.462;2023-08-12T00:48:24;9.40;;;8.50;;
75429;SDS011;64127;51.488;5.462;2023-08-12T00:50:57;11.53;;;8.40;;
75429;SDS011;64127;51.488;5.462;2023-08-12T00:53:29;8.93;;;7.87;;
75429;SDS011;64127;51.488;5.462;2023-08-12T00:56:01;9.73;;;8.73;;
75429;SDS011;64127;51.488;5.462;2023-08-12T00:58:34;11.07;;;8.20;;
75429;SDS011;64127;51.488;5.462;2023-08-12T01:01:06;9.37;;;8.33;;
75429;SDS011;64127;51.488;5.462;2023-08-12T01:03:39;11.93;;;8.50;;
75429;SDS011;64127;51.488;5.462;2023-08-12T01:06:11;10.77;;;8.37;;
75429;SDS011;64127;51.488;5.462;2023-08-12T01:08:44;10.40;;;8.00;;
75429;SDS011;64127;51.488;5.462;2023-08-12T01:11:20;9.73;;;7.93;;
75429;SDS011;64127;51.488;5.462;2023-08-12T01:16:46;8.43;;;7.43;;
75429;SDS011;64127;51.488;5.462;2023-08-12T01:22:11;7.97;;;6.90;;
75429;SDS011;64127;51.488;5.462;2023-08-12T01:24:44;10.20;;;7.20;;
75429;SDS011;64127;51.488;5.462;2023-08-12T01:27:16;8.70;;;7.20;;
75429;SDS011;64127;51.488;5.462;2023-08-12T01:29:49;8.20;;;7.03;;
75429;SDS011;64127;51.488;5.462;2023-08-12T01:35:20;7.30;;;6.60;;
75429;SDS011;64127;51.488;5.462;2023-08-12T01:38:11;9.87;;;6.40;;
75429;SDS011;64127;51.488;5.462;2023-08-12T01:40:43;9.03;;;6.90;;
75429;SDS011;64127;51.488;5.462;2023-08-12T01:43:17;9.30;;;6.90;;
75429;SDS011;64127;51.488;5.462;2023-08-12T01:45:50;8.73;;;7.03;;
75429;SDS011;64127;51.488;5.462;2023-08-12T01:48:22;9.00;;;6.50;;
75429;SDS011;64127;51.488;5.462;2023-08-12T01:50:54;8.50;;;6.60;;
75429;SDS011;64127;51.488;5.462;2023-08-12T01:53:27;7.70;;;6.50;;
75429;SDS011;64127;51.488;5.462;2023-08-12T01:56:01;9.00;;;6.17;;
75429;SDS011;64127;51.488;5.462;2023-08-12T01:58:33;8.70;;;6.03;;
75429;SDS011;64127;51.488;5.462;2023-08-12T02:01:05;9.00;;;6.03;;
75429;SDS011;64127;51.488;5.462;2023-08-12T02:03:37;11.50;;;6.00;;
75429;SDS011;64127;51.488;5.462;2023-08-12T02:06:10;8.73;;;6.33;;
75429;SDS011;64127;51.488;5.462;2023-08-12T02:08:42;8.57;;;6.30;;
75429;SDS011;64127;51.488;5.462;2023-08-12T02:11:14;7.63;;;5.80;;
75429;SDS011;64127;51.488;5.462;2023-08-12T02:13:46;7.30;;;6.30;;
75429;SDS011;64127;51.488;5.462;2023-08-12T02:16:18;8.93;;;6.70;;
75429;SDS011;64127;51.488;5.462;2023-08-12T02:18:50;9.60;;;6.70;;
75429;SDS011;64127;51.488;5.462;2023-08-12T02:21:23;8.83;;;5.80;;
75429;SDS011;64127;51.488;5.462;2023-08-12T02:23:55;9.23;;;6.67;;
75429;SDS011;64127;51.488;5.462;2023-08-12T02:26:27;9.57;;;6.10;;
75429;SDS011;64127;51.488;5.462;2023-08-12T02:28:59;9.23;;;6.07;;
75429;SDS011;64127;51.488;5.462;2023-08-12T02:31:31;8.87;;;6.53;;
75429;SDS011;64127;51.488;5.462;2023-08-12T02:34:03;7.57;;;6.20;;
75429;SDS011;64127;51.488;5.462;2023-08-12T02:36:35;7.90;;;6.67;;
75429;SDS011;64127;51.488;5.462;2023-08-12T02:39:08;8.00;;;6.50;;
75429;SDS011;64127;51.488;5.462;2023-08-12T02:41:40;7.67;;;6.20;;
75429;SDS011;64127;51.488;5.462;2023-08-12T02:44:12;8.90;;;6.43;;
75429;SDS011;64127;51.488;5.462;2023-08-12T02:46:44;7.53;;;6.30;;
75429;SDS011;64127;51.488;5.462;2023-08-12T02:49:16;8.80;;;6.17;;
75429;SDS011;64127;51.488;5.462;2023-08-12T02:51:48;7.70;;;5.90;;
75429;SDS011;64127;51.488;5.462;2023-08-12T02:54:20;8.97;;;6.03;;
75429;SDS011;64127;51.488;5.462;2023-08-12T02:56:52;7.40;;;6.10;;
75429;SDS011;64127;51.488;5.462;2023-08-12T02:59:24;7.53;;;6.70;;
75429;SDS011;64127;51.488;5.462;2023-08-12T03:01:57;7.93;;;6.47;;
75429;SDS011;64127;51.488;5.462;2023-08-12T03:04:29;7.40;;;5.93;;
75429;SDS011;64127;51.488;5.462;2023-08-12T03:07:01;9.90;;;5.90;;
75429;SDS011;64127;51.488;5.462;2023-08-12T03:09:34;8.13;;;6.20;;
75429;SDS011;64127;51.488;5.462;2023-08-12T03:12:06;6.53;;;5.73;;
75429;SDS011;64127;51.488;5.462;2023-08-12T03:14:39;8.43;;;5.73;;
75429;SDS011;64127;51.488;5.462;2023-08-12T03:17:14;6.87;;;5.63;;
75429;SDS011;64127;51.488;5.462;2023-08-12T03:19:46;6.57;;;5.57;;
75429;SDS011;64127;51.488;5.462;2023-08-12T03:22:18;6.00;;;5.40;;
75429;SDS011;64127;51.488;5.462;2023-08-12T03:24:51;7.40;;;5.67;;
75429;SDS011;64127;51.488;5.462;2023-08-12T03:27:24;6.80;;;5.77;;
75429;SDS011;64127;51.488;5.462;2023-08-12T03:29:56;7.80;;;5.73;;
75429;SDS011;64127;51.488;5.462;2023-08-12T03:32:29;6.83;;;5.07;;
75429;SDS011;64127;51.488;5.462;2023-08-12T03:35:01;6.90;;;4.97;;
75429;SDS011;64127;51.488;5.462;2023-08-12T03:37:33;7.50;;;4.70;;
75429;SDS011;64127;51.488;5.462;2023-08-12T03:40:06;5.77;;;4.33;;
75429;SDS011;64127;51.488;5.462;2023-08-12T03:42:39;6.63;;;4.97;;
75429;SDS011;64127;51.488;5.462;2023-08-12T03:45:11;6.30;;;4.63;;
75429;SDS011;64127;51.488;5.462;2023-08-12T03:47:43;6.03;;;4.57;;
75429;SDS011;64127;51.488;5.462;2023-08-12T03:50:18;6.77;;;5.00;;
75429;SDS011;64127;51.488;5.462;2023-08-12T03:52:50;7.90;;;4.80;;
75429;SDS011;64127;51.488;5.462;2023-08-12T03:55:22;6.63;;;4.83;;
75429;SDS011;64127;51.488;5.462;2023-08-12T03:57:55;8.13;;;5.50;;
75429;SDS011;64127;51.488;5.462;2023-08-12T04:00:27;6.83;;;4.97;;
75429;SDS011;64127;51.488;5.462;2023-08-12T04:02:59;6.00;;;4.77;;
75429;SDS011;64127;51.488;5.462;2023-08-12T04:05:32;6.17;;;5.27;;
75429;SDS011;64127;51.488;5.462;2023-08-12T04:08:04;7.07;;;5.40;;
75429;SDS011;64127;51.488;5.462;2023-08-12T04:10:37;7.20;;;5.50;;
75429;SDS011;64127;51.488;5.462;2023-08-12T04:13:09;7.47;;;5.60;;
75429;SDS011;64127;51.488;5.462;2023-08-12T04:15:41;8.03;;;5.67;;
75429;SDS011;64127;51.488;5.462;2023-08-12T04:18:14;7.67;;;5.67;;
75429;SDS011;64127;51.488;5.462;2023-08-12T04:20:50;8.63;;;6.20;;
75429;SDS011;64127;51.488;5.462;2023-08-12T04:23:23;6.20;;;5.57;;
75429;SDS011;64127;51.488;5.462;2023-08-12T04:25:59;8.50;;;5.97;;
75429;SDS011;64127;51.488;5.462;2023-08-12T04:28:31;7.70;;;5.60;;
75429;SDS011;64127;51.488;5.462;2023-08-12T04:31:05;8.50;;;5.67;;
75429;SDS011;64127;51.488;5.462;2023-08-12T04:33:41;6.53;;;5.83;;
75429;SDS011;64127;51.488;5.462;2023-08-12T04:36:13;7.95;;;5.90;;
75429;SDS011;64127;51.488;5.462;2023-08-12T04:38:45;6.33;;;5.73;;
75429;SDS011;64127;51.488;5.462;2023-08-12T04:41:17;9.07;;;5.40;;
75429;SDS011;64127;51.488;5.462;2023-08-12T04:43:50;6.50;;;5.47;;
75429;SDS011;64127;51.488;5.462;2023-08-12T04:46:25;6.70;;;5.63;;
75429;SDS011;64127;51.488;5.462;2023-08-12T04:48:57;8.60;;;5.37;;
75429;SDS011;64127;51.488;5.462;2023-08-12T04:51:29;7.07;;;5.67;;
75429;SDS011;64127;51.488;5.462;2023-08-12T04:54:01;7.40;;;6.00;;
75429;SDS011;64127;51.488;5.462;2023-08-12T04:56:34;8.40;;;5.90;;
75429;SDS011;64127;51.488;5.462;2023-08-12T04:59:06;8.97;;;6.40;;
75429;SDS011;64127;51.488;5.462;2023-08-12T05:01:39;9.33;;;5.90;;
75429;SDS011;64127;51.488;5.462;2023-08-12T05:04:31;8.47;;;6.03;;
75429;SDS011;64127;51.488;5.462;2023-08-12T05:07:03;7.90;;;6.00;;
75429;SDS011;64127;51.488;5.462;2023-08-12T05:09:36;7.23;;;5.53;;
75429;SDS011;64127;51.488;5.462;2023-08-12T05:12:08;5.97;;;5.33;;
75429;SDS011;64127;51.488;5.462;2023-08-12T05:14:40;7.00;;;4.90;;
75429;SDS011;64127;51.488;5.462;2023-08-12T05:17:13;6.93;;;4.80;;
75429;SDS011;64127;51.488;5.462;2023-08-12T05:19:45;5.93;;;4.80;;
75429;SDS011;64127;51.488;5.462;2023-08-12T05:22:17;5.20;;;4.43;;
75429;SDS011;64127;51.488;5.462;2023-08-12T05:28:11;5.03;;;3.97;;
75429;SDS011;64127;51.488;5.462;2023-08-12T05:30:43;7.30;;;4.20;;
75429;SDS011;64127;51.488;5.462;2023-08-12T05:33:15;4.97;;;4.10;;
75429;SDS011;64127;51.488;5.462;2023-08-12T05:35:48;4.30;;;3.77;;
75429;SDS011;64127;51.488;5.462;2023-08-12T05:38:22;5.10;;;3.50;;
75429;SDS011;64127;51.488;5.462;2023-08-12T05:40:54;4.10;;;3.50;;
75429;SDS011;64127;51.488;5.462;2023-08-12T05:43:27;4.87;;;3.70;;
75429;SDS011;64127;51.488;5.462;2023-08-12T05:46:02;4.70;;;3.90;;
75429;SDS011;64127;51.488;5.462;2023-08-12T05:48:34;4.57;;;3.83;;
75429;SDS011;64127;51.488;5.462;2023-08-12T05:51:06;4.47;;;3.67;;
75429;SDS011;64127;51.488;5.462;2023-08-12T05:53:38;3.97;;;3.67;;
75429;SDS011;64127;51.488;5.462;2023-08-12T05:56:10;4.87;;;3.93;;
75429;SDS011;64127;51.488;5.462;2023-08-12T05:58:43;3.80;;;3.50;;
75429;SDS011;64127;51.488;5.462;2023-08-12T06:01:15;4.93;;;3.80;;
75429;SDS011;64127;51.488;5.462;2023-08-12T06:03:52;4.57;;;3.63;;
75429;SDS011;64127;51.488;5.462;2023-08-12T06:06:26;4.10;;;3.70;;
75429;SDS011;64127;51.488;5.462;2023-08-12T06:08:59;4.93;;;3.63;;
75429;SDS011;64127;51.488;5.462;2023-08-12T06:11:34;5.37;;;3.43;;
75429;SDS011;64127;51.488;5.462;2023-08-12T06:14:12;3.80;;;3.40;;
75429;SDS011;64127;51.488;5.462;2023-08-12T06:16:44;3.60;;;3.30;;
75429;SDS011;64127;51.488;5.462;2023-08-12T06:19:19;3.53;;;3.23;;
75429;SDS011;64127;51.488;5.462;2023-08-12T06:21:51;3.63;;;3.33;;
75429;SDS011;64127;51.488;5.462;2023-08-12T06:24:24;3.37;;;3.10;;
75429;SDS011;64127;51.488;5.462;2023-08-12T06:26:59;3.60;;;3.30;;
75429;SDS011;64127;51.488;5.462;2023-08-12T06:29:45;4.00;;;2.80;;
75429;SDS011;64127;51.488;5.462;2023-08-12T06:32:18;3.40;;;3.10;;
75429;SDS011;64127;51.488;5.462;2023-08-12T06:34:50;3.40;;;3.10;;
75429;SDS011;64127;51.488;5.462;2023-08-12T06:37:24;2.90;;;2.70;;
75429;SDS011;64127;51.488;5.462;2023-08-12T06:39:58;3.23;;;2.80;;
75429;SDS011;64127;51.488;5.462;2023-08-12T06:42:38;3.10;;;2.90;;
75429;SDS011;64127;51.488;5.462;2023-08-12T06:45:13;3.00;;;2.80;;
75429;SDS011;64127;51.488;5.462;2023-08-12T06:47:48;2.47;;;2.27;;
75429;SDS011;64127;51.488;5.462;2023-08-12T06:50:20;2.60;;;2.40;;
75429;SDS011;64127;51.488;5.462;2023-08-12T06:52:52;2.70;;;2.50;;
75429;SDS011;64127;51.488;5.462;2023-08-12T06:55:27;2.60;;;2.40;;
75429;SDS011;64127;51.488;5.462;2023-08-12T06:58:02;2.63;;;2.43;;
75429;SDS011;64127;51.488;5.462;2023-08-12T07:00:34;2.80;;;2.60;;
75429;SDS011;64127;51.488;5.462;2023-08-12T07:03:07;3.00;;;2.80;;
75429;SDS011;64127;51.488;5.462;2023-08-12T07:05:39;2.87;;;2.67;;
75429;SDS011;64127;51.488;5.462;2023-08-12T07:08:18;3.03;;;2.77;;
75429;SDS011;64127;51.488;5.462;2023-08-12T07:10:53;3.17;;;2.97;;
75429;SDS011;64127;51.488;5.462;2023-08-12T07:13:28;2.90;;;2.70;;
75429;SDS011;64127;51.488;5.462;2023-08-12T07:16:22;3.20;;;3.00;;
75429;SDS011;64127;51.488;5.462;2023-08-12T07:19:03;3.40;;;3.10;;
75429;SDS011;64127;51.488;5.462;2023-08-12T07:21:55;3.80;;;3.50;;
75429;SDS011;64127;51.488;5.462;2023-08-12T07:24:27;4.50;;;3.93;;
75429;SDS011;64127;51.488;5.462;2023-08-12T07:26:59;3.67;;;3.43;;
75429;SDS011;64127;51.488;5.462;2023-08-12T07:29:32;3.70;;;3.40;;
75429;SDS011;64127;51.488;5.462;2023-08-12T07:32:04;3.77;;;3.50;;
75429;SDS011;64127;51.488;5.462;2023-08-12T07:34:42;4.03;;;3.73;;
75429;SDS011;64127;51.488;5.462;2023-08-12T07:37:14;3.93;;;3.63;;
75429;SDS011;64127;51.488;5.462;2023-08-12T07:39:46;4.03;;;3.73;;
75429;SDS011;64127;51.488;5.462;2023-08-12T07:42:19;3.40;;;3.10;;
75429;SDS011;64127;51.488;5.462;2023-08-12T07:44:51;3.23;;;3.03;;
75429;SDS011;64127;51.488;5.462;2023-08-12T07:47:24;3.80;;;3.43;;
75429;SDS011;64127;51.488;5.462;2023-08-12T07:49:56;3.03;;;2.83;;
75429;SDS011;64127;51.488;5.462;2023-08-12T07:52:30;3.07;;;2.83;;
75429;SDS011;64127;51.488;5.462;2023-08-12T07:55:03;2.80;;;2.60;;
75429;SDS011;64127;51.488;5.462;2023-08-12T07:57:36;2.70;;;2.50;;
75429;SDS011;64127;51.488;5.462;2023-08-12T08:00:08;2.50;;;2.30;;
75429;SDS011;64127;51.488;5.462;2023-08-12T08:02:41;2.77;;;2.57;;
75429;SDS011;64127;51.488;5.462;2023-08-12T08:05:17;2.87;;;2.67;;
75429;SDS011;64127;51.488;5.462;2023-08-12T08:07:51;3.37;;;2.40;;
75429;SDS011;64127;51.488;5.462;2023-08-12T08:10:24;2.50;;;2.30;;
75429;SDS011;64127;51.488;5.462;2023-08-12T08:12:56;2.33;;;2.17;;
75429;SDS011;64127;51.488;5.462;2023-08-12T08:15:31;2.53;;;2.33;;
75429;SDS011;64127;51.488;5.462;2023-08-12T08:18:03;2.00;;;1.90;;
75429;SDS011;64127;51.488;5.462;2023-08-12T08:20:42;2.40;;;2.20;;
75429;SDS011;64127;51.488;5.462;2023-08-12T08:23:16;2.70;;;2.50;;
75429;SDS011;64127;51.488;5.462;2023-08-12T08:25:48;2.40;;;2.30;;
75429;SDS011;64127;51.488;5.462;2023-08-12T08:28:20;2.40;;;2.20;;
75429;SDS011;64127;51.488;5.462;2023-08-12T08:30:53;2.90;;;2.20;;
75429;SDS011;64127;51.488;5.462;2023-08-12T08:33:25;2.50;;;2.33;;
75429;SDS011;64127;51.488;5.462;2023-08-12T08:35:58;2.87;;;2.57;;
75429;SDS011;64127;51.488;5.462;2023-08-12T08:38:30;3.67;;;2.70;;
75429;SDS011;64127;51.488;5.462;2023-08-12T08:41:02;3.37;;;3.17;;
75429;SDS011;64127;51.488;5.462;2023-08-12T08:43:41;3.70;;;3.40;;
75429;SDS011;64127;51.488;5.462;2023-08-12T08:46:17;4.00;;;3.70;;
75429;SDS011;64127;51.488;5.462;2023-08-12T08:48:50;4.60;;;4.30;;
75429;SDS011;64127;51.488;5.462;2023-08-12T08:51:23;4.90;;;4.60;;
75429;SDS011;64127;51.488;5.462;2023-08-12T08:53:56;5.27;;;4.97;;
75429;SDS011;64127;51.488;5.462;2023-08-12T08:56:36;5.70;;;5.20;;
75429;SDS011;64127;51.488;5.462;2023-08-12T08:59:20;6.00;;;5.60;;
75429;SDS011;64127;51.488;5.462;2023-08-12T09:01:55;6.03;;;5.70;;
75429;SDS011;64127;51.488;5.462;2023-08-12T09:04:30;5.77;;;5.37;;
75429;SDS011;64127;51.488;5.462;2023-08-12T09:07:03;5.70;;;5.30;;
75429;SDS011;64127;51.488;5.462;2023-08-12T09:09:46;6.03;;;5.63;;
75429;SDS011;64127;51.488;5.462;2023-08-12T09:12:27;5.73;;;5.43;;
75429;SDS011;64127;51.488;5.462;2023-08-12T09:14:59;5.03;;;4.73;;
75429;SDS011;64127;51.488;5.462;2023-08-12T09:17:32;4.80;;;4.40;;
75429;SDS011;64127;51.488;5.462;2023-08-12T09:20:05;4.40;;;4.10;;
75429;SDS011;64127;51.488;5.462;2023-08-12T09:22:43;3.90;;;3.60;;
75429;SDS011;64127;51.488;5.462;2023-08-12T09:25:15;3.23;;;3.03;;
75429;SDS011;64127;51.488;5.462;2023-08-12T09:35:05;2.80;;;2.60;;
75429;SDS011;64127;51.488;5.462;2023-08-12T09:37:49;2.77;;;2.57;;
75429;SDS011;64127;51.488;5.462;2023-08-12T09:40:21;2.67;;;2.47;;
75429;SDS011;64127;51.488;5.462;2023-08-12T09:42:55;2.70;;;2.50;;
75429;SDS011;64127;51.488;5.462;2023-08-12T09:45:30;2.50;;;2.40;;
75429;SDS011;64127;51.488;5.462;2023-08-12T09:48:04;2.60;;;2.40;;
75429;SDS011;64127;51.488;5.462;2023-08-12T09:50:41;3.10;;;2.20;;
75429;SDS011;64127;51.488;5.462;2023-08-12T09:53:16;2.70;;;2.50;;
75429;SDS011;64127;51.488;5.462;2023-08-12T09:55:55;2.30;;;2.10;;
75429;SDS011;64127;51.488;5.462;2023-08-12T09:58:40;2.60;;;2.40;;
75429;SDS011;64127;51.488;5.462;2023-08-12T10:01:54;4.30;;;2.80;;
75429;SDS011;64127;51.488;5.462;2023-08-12T10:04:29;3.67;;;2.40;;
75429;SDS011;64127;51.488;5.462;2023-08-12T10:07:14;2.90;;;2.57;;
75429;SDS011;64127;51.488;5.462;2023-08-12T10:09:48;2.77;;;2.20;;
75429;SDS011;64127;51.488;5.462;2023-08-12T10:12:21;2.47;;;2.27;;
75429;SDS011;64127;51.488;5.462;2023-08-12T10:15:00;2.70;;;2.50;;
75429;SDS011;64127;51.488;5.462;2023-08-12T10:17:33;3.43;;;2.57;;
75429;SDS011;64127;51.488;5.462;2023-08-12T10:20:16;3.27;;;2.30;;
75429;SDS011;64127;51.488;5.462;2023-08-12T10:22:54;2.83;;;2.50;;
75429;SDS011;64127;51.488;5.462;2023-08-12T10:25:29;2.90;;;2.53;;
75429;SDS011;64127;51.488;5.462;2023-08-12T10:28:05;3.07;;;2.40;;
75429;SDS011;64127;51.488;5.462;2023-08-12T10:30:40;3.27;;;2.70;;
75429;SDS011;64127;51.488;5.462;2023-08-12T10:33:15;3.63;;;2.43;;
75429;SDS011;64127;51.488;5.462;2023-08-12T10:35:48;2.53;;;1.90;;
75429;SDS011;64127;51.488;5.462;2023-08-12T10:38:21;2.93;;;1.80;;
75429;SDS011;64127;51.488;5.462;2023-08-12T10:46:31;3.00;;;1.80;;
75429;SDS011;64127;51.488;5.462;2023-08-12T10:49:09;1.80;;;1.50;;
75429;SDS011;64127;51.488;5.462;2023-08-12T10:51:46;4.23;;;1.80;;
75429;SDS011;64127;51.488;5.462;2023-08-12T11:02:32;3.63;;;1.80;;
75429;SDS011;64127;51.488;5.462;2023-08-12T11:05:09;2.80;;;1.90;;
75429;SDS011;64127;51.488;5.462;2023-08-12T11:07:59;3.50;;;1.90;;
75429;SDS011;64127;51.488;5.462;2023-08-12T11:10:34;3.00;;;1.87;;
75429;SDS011;64127;51.488;5.462;2023-08-12T11:13:06;2.70;;;1.70;;
75429;SDS011;64127;51.488;5.462;2023-08-12T11:15:41;3.70;;;1.90;;
75429;SDS011;64127;51.488;5.462;2023-08-12T11:18:18;5.43;;;2.00;;
75429;SDS011;64127;51.488;5.462;2023-08-12T11:20:52;3.70;;;1.77;;
75429;SDS011;64127;51.488;5.462;2023-08-12T11:23:27;3.27;;;1.87;;
75429;SDS011;64127;51.488;5.462;2023-08-12T11:26:00;2.80;;;1.60;;
75429;SDS011;64127;51.488;5.462;2023-08-12T11:28:32;3.53;;;2.00;;
75429;SDS011;64127;51.488;5.462;2023-08-12T11:31:05;3.20;;;1.80;;
75429;SDS011;64127;51.488;5.462;2023-08-12T11:33:37;2.67;;;1.70;;
75429;SDS011;64127;51.488;5.462;2023-08-12T11:36:09;3.53;;;1.90;;
75429;SDS011;64127;51.488;5.462;2023-08-12T11:38:42;3.13;;;2.00;;
75429;SDS011;64127;51.488;5.462;2023-08-12T11:41:22;6.70;;;2.07;;
75429;SDS011;64127;51.488;5.462;2023-08-12T11:43:54;5.70;;;2.07;;
75429;SDS011;64127;51.488;5.462;2023-08-12T11:46:26;4.47;;;2.20;;
75429;SDS011;64127;51.488;5.462;2023-08-12T11:48:59;5.83;;;2.30;;
75429;SDS011;64127;51.488;5.462;2023-08-12T11:51:31;4.93;;;2.30;;
75429;SDS011;64127;51.488;5.462;2023-08-12T11:54:04;3.73;;;2.10;;
75429;SDS011;64127;51.488;5.462;2023-08-12T11:56:39;5.40;;;2.50;;
75429;SDS011;64127;51.488;5.462;2023-08-12T11:59:13;7.23;;;2.70;;
75429;SDS011;64127;51.488;5.462;2023-08-12T12:01:48;6.90;;;2.27;;
75429;SDS011;64127;51.488;5.462;2023-08-12T12:04:21;7.20;;;2.27;;
75429;SDS011;64127;51.488;5.462;2023-08-12T12:06:57;3.40;;;2.20;;
75429;SDS011;64127;51.488;5.462;2023-08-12T12:09:37;3.67;;;1.93;;
75429;SDS011;64127;51.488;5.462;2023-08-12T12:12:15;4.70;;;2.27;;
75429;SDS011;64127;51.488;5.462;2023-08-12T12:14:58;5.30;;;2.33;;
75429;SDS011;64127;51.488;5.462;2023-08-12T12:17:38;5.77;;;2.40;;
75429;SDS011;64127;51.488;5.462;2023-08-12T12:20:14;5.27;;;2.30;;
75429;SDS011;64127;51.488;5.462;2023-08-12T12:22:49;7.40;;;2.73;;
75429;SDS011;64127;51.488;5.462;2023-08-12T12:25:22;5.97;;;2.47;;
75429;SDS011;64127;51.488;5.462;2023-08-12T12:27:56;4.50;;;2.30;;
75429;SDS011;64127;51.488;5.462;2023-08-12T12:30:31;6.30;;;2.80;;
75429;SDS011;64127;51.488;5.462;2023-08-12T12:33:06;6.50;;;2.60;;
75429;SDS011;64127;51.488;5.462;2023-08-12T12:35:44;5.07;;;2.47;;
75429;SDS011;64127;51.488;5.462;2023-08-12T12:38:29;5.33;;;2.83;;
75429;SDS011;64127;51.488;5.462;2023-08-12T12:41:04;4.17;;;2.40;;
75429;SDS011;64127;51.488;5.462;2023-08-12T12:43:37;6.23;;;2.60;;
75429;SDS011;64127;51.488;5.462;2023-08-12T12:46:09;7.53;;;2.67;;
75429;SDS011;64127;51.488;5.462;2023-08-12T12:48:50;3.80;;;2.50;;
75429;SDS011;64127;51.488;5.462;2023-08-12T12:51:24;5.57;;;2.80;;
75429;SDS011;64127;51.488;5.462;2023-08-12T12:53:57;7.37;;;2.60;;
75429;SDS011;64127;51.488;5.462;2023-08-12T12:56:41;5.40;;;2.30;;
75429;SDS011;64127;51.488;5.462;2023-08-12T12:59:16;7.00;;;2.60;;
75429;SDS011;64127;51.488;5.462;2023-08-12T13:01:49;4.70;;;2.47;;
75429;SDS011;64127;51.488;5.462;2023-08-12T13:04:21;8.10;;;2.60;;
75429;SDS011;64127;51.488;5.462;2023-08-12T13:06:53;3.93;;;2.70;;
75429;SDS011;64127;51.488;5.462;2023-08-12T13:09:28;4.67;;;2.90;;
75429;SDS011;64127;51.488;5.462;2023-08-12T13:12:02;4.63;;;2.47;;
75429;SDS011;64127;51.488;5.462;2023-08-12T13:14:35;3.83;;;2.27;;
75429;SDS011;64127;51.488;5.462;2023-08-12T13:17:07;4.17;;;2.57;;
75429;SDS011;64127;51.488;5.462;2023-08-12T13:19:39;6.27;;;2.83;;
75429;SDS011;64127;51.488;5.462;2023-08-12T13:22:11;5.70;;;2.63;;
75429;SDS011;64127;51.488;5.462;2023-08-12T13:24:43;6.63;;;2.70;;
75429;SDS011;64127;51.488;5.462;2023-08-12T13:27:16;6.37;;;2.50;;
75429;SDS011;64127;51.488;5.462;2023-08-12T13:29:48;4.47;;;2.70;;
75429;SDS011;64127;51.488;5.462;2023-08-12T13:32:20;3.83;;;2.33;;
75429;SDS011;64127;51.488;5.462;2023-08-12T13:34:52;6.07;;;3.00;;
75429;SDS011;64127;51.488;5.462;2023-08-12T13:37:25;4.33;;;2.60;;
75429;SDS011;64127;51.488;5.462;2023-08-12T13:40:00;5.97;;;2.77;;
75429;SDS011;64127;51.488;5.462;2023-08-12T13:42:32;5.53;;;2.75;;
75429;SDS011;64127;51.488;5.462;2023-08-12T13:45:04;3.63;;;2.40;;
75429;SDS011;64127;51.488;5.462;2023-08-12T13:47:37;4.30;;;2.43;;
75429;SDS011;64127;51.488;5.462;2023-08-12T13:50:10;5.47;;;2.60;;
75429;SDS011;64127;51.488;5.462;2023-08-12T13:52:42;5.43;;;2.80;;
75429;SDS011;64127;51.488;5.462;2023-08-12T13:55:18;4.93;;;3.00;;
75429;SDS011;64127;51.488;5.462;2023-08-12T13:57:50;6.00;;;2.90;;
75429;SDS011;64127;51.488;5.462;2023-08-12T14:00:23;5.27;;;2.93;;
75429;SDS011;64127;51.488;5.462;2023-08-12T14:02:56;5.43;;;2.63;;
75429;SDS011;64127;51.488;5.462;2023-08-12T14:05:28;5.87;;;3.30;;
75429;SDS011;64127;51.488;5.462;2023-08-12T14:08:00;4.63;;;3.00;;
75429;SDS011;64127;51.488;5.462;2023-08-12T14:10:32;4.57;;;3.13;;
75429;SDS011;64127;51.488;5.462;2023-08-12T14:13:04;4.87;;;3.40;;
75429;SDS011;64127;51.488;5.462;2023-08-12T14:16:42;6.93;;;3.83;;
75429;SDS011;64127;51.488;5.462;2023-08-12T14:19:14;5.60;;;3.80;;
75429;SDS011;64127;51.488;5.462;2023-08-12T14:21:49;6.90;;;3.80;;
75429;SDS011;64127;51.488;5.462;2023-08-12T14:24:21;7.53;;;3.97;;
75429;SDS011;64127;51.488;5.462;2023-08-12T14:26:53;5.10;;;3.70;;
75429;SDS011;64127;51.488;5.462;2023-08-12T14:29:25;4.57;;;3.60;;
75429;SDS011;64127;51.488;5.462;2023-08-12T14:31:57;7.93;;;4.20;;
75429;SDS011;64127;51.488;5.462;2023-08-12T14:34:29;4.40;;;3.73;;
75429;SDS011;64127;51.488;5.462;2023-08-12T14:37:02;4.57;;;4.00;;
75429;SDS011;64127;51.488;5.462;2023-08-12T14:39:34;6.43;;;4.80;;
75429;SDS011;64127;51.488;5.462;2023-08-12T14:42:06;5.23;;;4.40;;
75429;SDS011;64127;51.488;5.462;2023-08-12T14:44:40;6.60;;;4.33;;
75429;SDS011;64127;51.488;5.462;2023-08-12T14:47:12;6.87;;;4.93;;
75429;SDS011;64127;51.488;5.462;2023-08-12T14:49:44;4.67;;;4.00;;
75429;SDS011;64127;51.488;5.462;2023-08-12T14:52:21;5.67;;;4.87;;
75429;SDS011;64127;51.488;5.462;2023-08-12T14:54:53;6.37;;;4.80;;
75429;SDS011;64127;51.488;5.462;2023-08-12T14:57:25;6.83;;;4.57;;
75429;SDS011;64127;51.488;5.462;2023-08-12T14:59:57;5.83;;;5.00;;
75429;SDS011;64127;51.488;5.462;2023-08-12T15:02:29;6.07;;;4.80;;
75429;SDS011;64127;51.488;5.462;2023-08-12T15:05:03;5.97;;;4.90;;
75429;SDS011;64127;51.488;5.462;2023-08-12T15:07:37;5.03;;;3.93;;
75429;SDS011;64127;51.488;5.462;2023-08-12T15:10:09;4.87;;;4.00;;
75429;SDS011;64127;51.488;5.462;2023-08-12T15:12:41;4.23;;;3.77;;
75429;SDS011;64127;51.488;5.462;2023-08-12T15:15:13;4.63;;;3.60;;
75429;SDS011;64127;51.488;5.462;2023-08-12T15:17:45;7.83;;;3.47;;
75429;SDS011;64127;51.488;5.462;2023-08-12T15:20:17;4.90;;;2.90;;
75429;SDS011;64127;51.488;5.462;2023-08-12T15:22:50;3.67;;;3.03;;
75429;SDS011;64127;51.488;5.462;2023-08-12T15:25:22;3.20;;;2.57;;
75429;SDS011;64127;51.488;5.462;2023-08-12T15:27:54;3.73;;;2.80;;
75429;SDS011;64127;51.488;5.462;2023-08-12T15:30:27;5.17;;;2.70;;
75429;SDS011;64127;51.488;5.462;2023-08-12T15:33:00;4.40;;;2.67;;
75429;SDS011;64127;51.488;5.462;2023-08-12T15:35:32;2.83;;;2.20;;
75429;SDS011;64127;51.488;5.462;2023-08-12T15:38:04;2.93;;;2.30;;
75429;SDS011;64127;51.488;5.462;2023-08-12T15:40:37;4.87;;;2.00;;
75429;SDS011;64127;51.488;5.462;2023-08-12T15:43:10;4.83;;;2.27;;
75429;SDS011;64127;51.488;5.462;2023-08-12T15:45:42;3.60;;;2.00;;
75429;SDS011;64127;51.488;5.462;2023-08-12T15:48:14;5.13;;;2.57;;
75429;SDS011;64127;51.488;5.462;2023-08-12T15:50:46;5.13;;;2.43;;
75429;SDS011;64127;51.488;5.462;2023-08-12T15:53:18;6.27;;;2.10;;
75429;SDS011;64127;51.488;5.462;2023-08-12T15:55:50;4.10;;;2.03;;
75429;SDS011;64127;51.488;5.462;2023-08-12T15:58:23;3.33;;;1.80;;
75429;SDS011;64127;51.488;5.462;2023-08-12T16:00:55;4.43;;;2.07;;
75429;SDS011;64127;51.488;5.462;2023-08-12T16:03:27;4.47;;;1.90;;